OAL951 LGAV-LGRP
Flight info
| Callsign | OAL951 |
|---|---|
| Flight time | 0h 44m |
| Altitude | 31000 |
| Route | KEA UL995 CODIC |
| Aircraft | B738/M-SDE2E3FGHIRWXY/LB1 |
Departure
| Time | 2026-05-06 20:44 |
|---|---|
| Airport | Athens Eleftherios Venizelos International Airport (LGAV) |
Arrival
| Time | 2026-05-06 21:29 |
|---|---|
| Airport | Rhodes International Airport "Diagoras" (LGRP) |
| Time | Latitude | Longitude | Altitude | Speed | Heading |
|---|---|---|---|---|---|
| 2026-05-06 20:23 | 37.93792 | 23.95023 | 301 ft | 0 kts | 306° |
| 2026-05-06 20:34 | 37.93789 | 23.95028 | 300 ft | 2 kts | 305° |
| 2026-05-06 20:34 | 37.93781 | 23.95042 | 300 ft | 2 kts | 305° |
| 2026-05-06 20:34 | 37.93774 | 23.95056 | 300 ft | 2 kts | 305° |
| 2026-05-06 20:34 | 37.93766 | 23.95070 | 303 ft | 2 kts | 305° |
| 2026-05-06 20:35 | 37.93758 | 23.95084 | 299 ft | 2 kts | 304° |
| 2026-05-06 20:35 | 37.93750 | 23.95097 | 299 ft | 2 kts | 331° |
| 2026-05-06 20:35 | 37.93738 | 23.95103 | 299 ft | 2 kts | 1° |
| 2026-05-06 20:35 | 37.93734 | 23.95103 | 299 ft | 0 kts | 14° |
| 2026-05-06 20:37 | 37.93745 | 23.95107 | 299 ft | 4 kts | 15° |
| 2026-05-06 20:37 | 37.93774 | 23.95128 | 301 ft | 7 kts | 34° |
| 2026-05-06 20:38 | 37.93822 | 23.95172 | 302 ft | 9 kts | 37° |
| 2026-05-06 20:38 | 37.93858 | 23.95233 | 300 ft | 9 kts | 60° |
| 2026-05-06 20:38 | 37.93880 | 23.95302 | 299 ft | 8 kts | 71° |
| 2026-05-06 20:38 | 37.93875 | 23.95372 | 298 ft | 8 kts | 121° |
| 2026-05-06 20:39 | 37.93854 | 23.95441 | 297 ft | 9 kts | 93° |
| 2026-05-06 20:39 | 37.93891 | 23.95510 | 295 ft | 11 kts | 37° |
| 2026-05-06 20:39 | 37.93965 | 23.95581 | 298 ft | 15 kts | 37° |
| 2026-05-06 20:39 | 37.94061 | 23.95670 | 296 ft | 19 kts | 36° |
| 2026-05-06 20:40 | 37.94172 | 23.95775 | 297 ft | 21 kts | 38° |
| 2026-05-06 20:40 | 37.94296 | 23.95895 | 300 ft | 23 kts | 37° |
| 2026-05-06 20:40 | 37.94422 | 23.96013 | 300 ft | 22 kts | 36° |
| 2026-05-06 20:40 | 37.94544 | 23.96129 | 299 ft | 22 kts | 37° |
| 2026-05-06 20:41 | 37.94663 | 23.96241 | 298 ft | 21 kts | 36° |
| 2026-05-06 20:41 | 37.94779 | 23.96349 | 299 ft | 20 kts | 36° |
| 2026-05-06 20:41 | 37.94889 | 23.96457 | 303 ft | 20 kts | 37° |
| 2026-05-06 20:41 | 37.94996 | 23.96558 | 302 ft | 19 kts | 36° |
| 2026-05-06 20:42 | 37.95103 | 23.96657 | 302 ft | 18 kts | 36° |
| 2026-05-06 20:42 | 37.95203 | 23.96752 | 304 ft | 15 kts | 38° |
| 2026-05-06 20:42 | 37.95279 | 23.96829 | 302 ft | 14 kts | 45° |
| 2026-05-06 20:42 | 37.95279 | 23.96927 | 305 ft | 11 kts | 122° |
| 2026-05-06 20:43 | 37.95232 | 23.97001 | 308 ft | 11 kts | 142° |
| 2026-05-06 20:43 | 37.95163 | 23.96995 | 309 ft | 11 kts | 217° |
| 2026-05-06 20:43 | 37.95091 | 23.96926 | 308 ft | 21 kts | 217° |
| 2026-05-06 20:43 | 37.94780 | 23.96627 | 300 ft | 93 kts | 218° |
| 2026-05-06 20:44 | 37.94080 | 23.95963 | 285 ft | 156 kts | 218° |
| 2026-05-06 20:44 | 37.93148 | 23.95061 | 661 ft | 171 kts | 217° |
| 2026-05-06 20:44 | 37.92243 | 23.94214 | 1554 ft | 164 kts | 217° |
| 2026-05-06 20:44 | 37.91216 | 23.93505 | 2139 ft | 176 kts | 195° |
| 2026-05-06 20:45 | 37.89976 | 23.93005 | 2460 ft | 203 kts | 206° |
| 2026-05-06 20:45 | 37.88687 | 23.92068 | 2733 ft | 220 kts | 211° |
| 2026-05-06 20:45 | 37.87300 | 23.91047 | 2957 ft | 239 kts | 209° |
| 2026-05-06 20:45 | 37.85820 | 23.90020 | 3481 ft | 247 kts | 208° |
| 2026-05-06 20:46 | 37.84265 | 23.88982 | 4016 ft | 258 kts | 207° |
| 2026-05-06 20:46 | 37.82687 | 23.87936 | 4960 ft | 252 kts | 208° |
| 2026-05-06 20:46 | 37.81140 | 23.86884 | 5781 ft | 254 kts | 208° |
| 2026-05-06 20:46 | 37.79577 | 23.85822 | 6522 ft | 257 kts | 209° |
| 2026-05-06 20:47 | 37.77896 | 23.85031 | 6867 ft | 260 kts | 186° |
| 2026-05-06 20:47 | 37.76085 | 23.85221 | 6990 ft | 267 kts | 163° |
| 2026-05-06 20:47 | 37.74328 | 23.86102 | 7167 ft | 280 kts | 147° |
| 2026-05-06 20:47 | 37.73025 | 23.87927 | 7793 ft | 285 kts | 117° |
| 2026-05-06 20:48 | 37.72168 | 23.90190 | 8535 ft | 287 kts | 115° |
| 2026-05-06 20:48 | 37.71288 | 23.92477 | 9233 ft | 292 kts | 116° |
| 2026-05-06 20:48 | 37.70363 | 23.94781 | 9945 ft | 296 kts | 117° |
| 2026-05-06 20:48 | 37.69403 | 23.97118 | 10464 ft | 307 kts | 117° |
| 2026-05-06 20:49 | 37.68375 | 23.99598 | 10608 ft | 330 kts | 117° |
| 2026-05-06 20:49 | 37.67275 | 24.02238 | 10828 ft | 349 kts | 117° |
| 2026-05-06 20:49 | 37.66129 | 24.04986 | 11307 ft | 358 kts | 117° |
| 2026-05-06 20:49 | 37.64963 | 24.07777 | 11951 ft | 361 kts | 117° |
| 2026-05-06 20:50 | 37.63785 | 24.10599 | 12599 ft | 366 kts | 117° |
| 2026-05-06 20:50 | 37.62982 | 24.12521 | 13031 ft | 369 kts | 117° |
| 2026-05-06 20:50 | 37.61794 | 24.15364 | 13685 ft | 373 kts | 117° |
| 2026-05-06 20:50 | 37.60558 | 24.18316 | 14306 ft | 378 kts | 117° |
| 2026-05-06 20:51 | 37.59339 | 24.21227 | 14905 ft | 383 kts | 117° |
| 2026-05-06 20:51 | 37.58072 | 24.24250 | 15529 ft | 388 kts | 117° |
| 2026-05-06 20:51 | 37.56819 | 24.27234 | 16133 ft | 392 kts | 117° |
| 2026-05-06 20:51 | 37.55536 | 24.30343 | 16741 ft | 397 kts | 114° |
| 2026-05-06 20:52 | 37.54511 | 24.33586 | 17330 ft | 400 kts | 107° |
| 2026-05-06 20:52 | 37.53648 | 24.36940 | 17904 ft | 405 kts | 105° |
| 2026-05-06 20:52 | 37.52827 | 24.40357 | 18475 ft | 410 kts | 104° |
| 2026-05-06 20:52 | 37.52008 | 24.43757 | 18987 ft | 413 kts | 105° |
| 2026-05-06 20:53 | 37.51152 | 24.47231 | 19546 ft | 416 kts | 105° |
| 2026-05-06 20:53 | 37.50273 | 24.50715 | 20096 ft | 419 kts | 105° |
| 2026-05-06 20:53 | 37.49372 | 24.54217 | 20629 ft | 422 kts | 106° |
| 2026-05-06 20:53 | 37.48454 | 24.57746 | 21150 ft | 426 kts | 106° |
| 2026-05-06 20:54 | 37.47525 | 24.61298 | 21650 ft | 429 kts | 106° |
| 2026-05-06 20:54 | 37.46585 | 24.64877 | 22160 ft | 432 kts | 106° |
| 2026-05-06 20:54 | 37.45637 | 24.68483 | 22655 ft | 436 kts | 106° |
| 2026-05-06 20:54 | 37.44681 | 24.72114 | 23141 ft | 439 kts | 106° |
| 2026-05-06 20:55 | 37.43718 | 24.75770 | 23625 ft | 442 kts | 107° |
| 2026-05-06 20:55 | 37.42747 | 24.79453 | 24026 ft | 445 kts | 107° |
| 2026-05-06 20:55 | 37.41769 | 24.83155 | 24429 ft | 448 kts | 107° |
| 2026-05-06 20:55 | 37.40783 | 24.86883 | 24831 ft | 450 kts | 107° |
| 2026-05-06 20:56 | 37.39791 | 24.90630 | 25227 ft | 453 kts | 107° |
| 2026-05-06 20:56 | 37.38793 | 24.94396 | 25609 ft | 456 kts | 107° |
| 2026-05-06 20:56 | 37.37787 | 24.98184 | 25975 ft | 458 kts | 107° |
| 2026-05-06 20:56 | 37.36774 | 25.01996 | 26353 ft | 461 kts | 107° |
| 2026-05-06 20:57 | 37.35751 | 25.05838 | 26660 ft | 465 kts | 106° |
| 2026-05-06 20:57 | 37.34721 | 25.09704 | 26998 ft | 468 kts | 107° |
| 2026-05-06 20:57 | 37.33683 | 25.13592 | 27405 ft | 469 kts | 107° |
| 2026-05-06 20:57 | 37.32645 | 25.17480 | 27759 ft | 471 kts | 107° |
| 2026-05-06 20:58 | 37.31598 | 25.21396 | 28071 ft | 475 kts | 107° |
| 2026-05-06 20:58 | 37.30542 | 25.25340 | 28402 ft | 477 kts | 107° |
| 2026-05-06 20:58 | 37.29483 | 25.29293 | 28751 ft | 479 kts | 107° |
| 2026-05-06 20:58 | 37.28417 | 25.33262 | 29124 ft | 480 kts | 107° |
| 2026-05-06 20:59 | 37.27334 | 25.37222 | 29523 ft | 481 kts | 108° |
| 2026-05-06 20:59 | 37.26113 | 25.41132 | 29971 ft | 481 kts | 110° |
| 2026-05-06 20:59 | 37.24822 | 25.44990 | 30395 ft | 479 kts | 111° |
| 2026-05-06 20:59 | 37.23535 | 25.48845 | 30789 ft | 478 kts | 110° |
| 2026-05-06 21:00 | 37.22270 | 25.52693 | 31105 ft | 478 kts | 110° |
| 2026-05-06 21:00 | 37.19706 | 25.60425 | 31101 ft | 479 kts | 111° |
| 2026-05-06 21:01 | 37.17137 | 25.68108 | 31106 ft | 477 kts | 111° |
| 2026-05-06 21:01 | 37.14570 | 25.75780 | 31102 ft | 477 kts | 111° |
| 2026-05-06 21:02 | 37.12001 | 25.83447 | 31106 ft | 477 kts | 111° |
| 2026-05-06 21:02 | 37.09429 | 25.91106 | 31104 ft | 477 kts | 111° |
| 2026-05-06 21:03 | 37.06849 | 25.98765 | 31093 ft | 478 kts | 111° |
| 2026-05-06 21:03 | 37.04262 | 26.06430 | 31101 ft | 478 kts | 111° |
| 2026-05-06 21:04 | 37.01668 | 26.14093 | 31091 ft | 479 kts | 111° |
| 2026-05-06 21:04 | 36.99066 | 26.21764 | 31100 ft | 479 kts | 111° |
| 2026-05-06 21:05 | 36.96474 | 26.29394 | 31098 ft | 480 kts | 111° |
| 2026-05-06 21:05 | 36.93849 | 26.37143 | 30772 ft | 484 kts | 111° |
| 2026-05-06 21:05 | 36.92551 | 26.40970 | 30192 ft | 484 kts | 111° |
| 2026-05-06 21:06 | 36.91237 | 26.44835 | 29454 ft | 483 kts | 111° |
| 2026-05-06 21:06 | 36.89923 | 26.48695 | 28787 ft | 481 kts | 111° |
| 2026-05-06 21:06 | 36.88622 | 26.52509 | 28306 ft | 475 kts | 111° |
| 2026-05-06 21:06 | 36.87330 | 26.56282 | 27774 ft | 470 kts | 111° |
| 2026-05-06 21:07 | 36.86049 | 26.60017 | 27282 ft | 466 kts | 110° |
| 2026-05-06 21:07 | 36.84779 | 26.63716 | 26777 ft | 461 kts | 110° |
| 2026-05-06 21:07 | 36.83520 | 26.67381 | 26287 ft | 457 kts | 110° |
| 2026-05-06 21:07 | 36.82271 | 26.71014 | 25798 ft | 454 kts | 110° |
| 2026-05-06 21:08 | 36.81037 | 26.74601 | 25319 ft | 450 kts | 110° |
| 2026-05-06 21:08 | 36.79809 | 26.78173 | 24836 ft | 447 kts | 110° |
| 2026-05-06 21:08 | 36.78586 | 26.81726 | 24359 ft | 444 kts | 110° |
| 2026-05-06 21:08 | 36.77372 | 26.85251 | 23864 ft | 441 kts | 110° |
| 2026-05-06 21:09 | 36.76161 | 26.88764 | 23339 ft | 439 kts | 110° |
| 2026-05-06 21:09 | 36.74959 | 26.92246 | 22799 ft | 436 kts | 110° |
| 2026-05-06 21:09 | 36.73764 | 26.95706 | 22306 ft | 432 kts | 110° |
| 2026-05-06 21:09 | 36.72578 | 26.99134 | 21821 ft | 429 kts | 110° |
| 2026-05-06 21:10 | 36.71401 | 27.02531 | 21337 ft | 425 kts | 110° |
| 2026-05-06 21:10 | 36.70234 | 27.05901 | 20880 ft | 422 kts | 110° |
| 2026-05-06 21:10 | 36.69074 | 27.09244 | 20412 ft | 418 kts | 111° |
| 2026-05-06 21:10 | 36.67922 | 27.12556 | 19948 ft | 415 kts | 111° |
| 2026-05-06 21:11 | 36.66776 | 27.15844 | 19491 ft | 413 kts | 111° |
| 2026-05-06 21:11 | 36.65633 | 27.19109 | 19043 ft | 410 kts | 111° |
| 2026-05-06 21:11 | 36.64493 | 27.22357 | 18567 ft | 408 kts | 112° |
| 2026-05-06 21:11 | 36.63361 | 27.25581 | 18060 ft | 406 kts | 112° |
| 2026-05-06 21:12 | 36.62232 | 27.28791 | 17556 ft | 403 kts | 112° |
| 2026-05-06 21:12 | 36.61115 | 27.31969 | 17090 ft | 399 kts | 112° |
| 2026-05-06 21:12 | 36.60006 | 27.35120 | 16628 ft | 396 kts | 112° |
| 2026-05-06 21:12 | 36.58905 | 27.38246 | 16180 ft | 392 kts | 112° |
| 2026-05-06 21:13 | 36.57813 | 27.41343 | 15728 ft | 389 kts | 112° |
| 2026-05-06 21:13 | 36.56729 | 27.44415 | 15293 ft | 386 kts | 112° |
| 2026-05-06 21:13 | 36.55652 | 27.47465 | 14858 ft | 384 kts | 112° |
| 2026-05-06 21:13 | 36.54581 | 27.50495 | 14420 ft | 381 kts | 112° |
| 2026-05-06 21:14 | 36.53516 | 27.53504 | 13968 ft | 379 kts | 112° |
| 2026-05-06 21:14 | 36.52456 | 27.56498 | 13487 ft | 377 kts | 112° |
| 2026-05-06 21:14 | 36.51403 | 27.59470 | 13015 ft | 375 kts | 112° |
| 2026-05-06 21:14 | 36.50356 | 27.62420 | 12568 ft | 372 kts | 112° |
| 2026-05-06 21:15 | 36.49316 | 27.65350 | 12126 ft | 369 kts | 112° |
| 2026-05-06 21:15 | 36.48284 | 27.68252 | 11693 ft | 366 kts | 112° |
| 2026-05-06 21:15 | 36.47260 | 27.71127 | 11268 ft | 363 kts | 112° |
| 2026-05-06 21:15 | 36.46346 | 27.74018 | 10885 ft | 353 kts | 101° |
| 2026-05-06 21:16 | 36.45927 | 27.76917 | 10755 ft | 331 kts | 95° |
| 2026-05-06 21:16 | 36.45611 | 27.79638 | 10598 ft | 314 kts | 95° |
| 2026-05-06 21:16 | 36.45294 | 27.82286 | 10460 ft | 299 kts | 96° |
| 2026-05-06 21:16 | 36.44976 | 27.84807 | 10349 ft | 294 kts | 96° |
| 2026-05-06 21:17 | 36.44647 | 27.87306 | 10238 ft | 292 kts | 96° |
| 2026-05-06 21:17 | 36.44315 | 27.89789 | 10124 ft | 291 kts | 96° |
| 2026-05-06 21:17 | 36.43981 | 27.92264 | 9829 ft | 290 kts | 96° |
| 2026-05-06 21:17 | 36.43646 | 27.94737 | 9477 ft | 291 kts | 97° |
| 2026-05-06 21:18 | 36.43312 | 27.97204 | 9177 ft | 289 kts | 97° |
| 2026-05-06 21:18 | 36.42978 | 27.99655 | 8886 ft | 287 kts | 97° |
| 2026-05-06 21:18 | 36.42646 | 28.02095 | 8600 ft | 285 kts | 97° |
| 2026-05-06 21:18 | 36.42317 | 28.04514 | 8328 ft | 283 kts | 97° |
| 2026-05-06 21:19 | 36.41989 | 28.06920 | 8025 ft | 283 kts | 97° |
| 2026-05-06 21:19 | 36.41661 | 28.09319 | 7723 ft | 281 kts | 97° |
| 2026-05-06 21:19 | 36.41339 | 28.11678 | 7436 ft | 280 kts | 98° |
| 2026-05-06 21:19 | 36.41013 | 28.14058 | 7130 ft | 279 kts | 98° |
| 2026-05-06 21:20 | 36.40687 | 28.16431 | 6845 ft | 278 kts | 98° |
| 2026-05-06 21:20 | 36.40362 | 28.18793 | 6559 ft | 277 kts | 98° |
| 2026-05-06 21:20 | 36.40038 | 28.21146 | 6226 ft | 276 kts | 98° |
| 2026-05-06 21:20 | 36.39718 | 28.23468 | 5868 ft | 270 kts | 98° |
| 2026-05-06 21:21 | 36.39404 | 28.25740 | 5521 ft | 264 kts | 98° |
| 2026-05-06 21:21 | 36.39099 | 28.27947 | 5265 ft | 255 kts | 98° |
| 2026-05-06 21:21 | 36.38802 | 28.30082 | 5006 ft | 248 kts | 98° |
| 2026-05-06 21:21 | 36.38512 | 28.32175 | 4776 ft | 244 kts | 98° |
| 2026-05-06 21:22 | 36.38440 | 28.34253 | 4561 ft | 239 kts | 79° |
| 2026-05-06 21:22 | 36.38984 | 28.36157 | 4345 ft | 233 kts | 56° |
| 2026-05-06 21:22 | 36.40042 | 28.37633 | 4155 ft | 227 kts | 36° |
| 2026-05-06 21:22 | 36.41408 | 28.38555 | 3955 ft | 222 kts | 18° |
| 2026-05-06 21:23 | 36.42910 | 28.38881 | 3765 ft | 219 kts | 359° |
| 2026-05-06 21:23 | 36.44396 | 28.38580 | 3548 ft | 216 kts | 341° |
| 2026-05-06 21:23 | 36.45707 | 28.37701 | 3364 ft | 213 kts | 322° |
| 2026-05-06 21:23 | 36.46702 | 28.36397 | 3208 ft | 204 kts | 305° |
| 2026-05-06 21:24 | 36.47283 | 28.34811 | 3054 ft | 201 kts | 288° |
| 2026-05-06 21:24 | 36.47434 | 28.33111 | 2885 ft | 199 kts | 263° |
| 2026-05-06 21:24 | 36.47040 | 28.31485 | 2817 ft | 196 kts | 256° |
| 2026-05-06 21:24 | 36.46650 | 28.29862 | 2736 ft | 195 kts | 256° |
| 2026-05-06 21:25 | 36.46246 | 28.28280 | 2640 ft | 190 kts | 255° |
| 2026-05-06 21:25 | 36.45831 | 28.26743 | 2514 ft | 186 kts | 254° |
| 2026-05-06 21:25 | 36.45397 | 28.25232 | 2418 ft | 185 kts | 253° |
| 2026-05-06 21:25 | 36.44963 | 28.23751 | 2265 ft | 181 kts | 253° |
| 2026-05-06 21:26 | 36.44534 | 28.22287 | 2014 ft | 179 kts | 253° |
| 2026-05-06 21:26 | 36.44114 | 28.20854 | 1781 ft | 175 kts | 253° |
| 2026-05-06 21:26 | 36.43707 | 28.19464 | 1555 ft | 168 kts | 252° |
| 2026-05-06 21:26 | 36.43317 | 28.18134 | 1365 ft | 158 kts | 252° |
| 2026-05-06 21:27 | 36.42950 | 28.16879 | 1130 ft | 151 kts | 252° |
| 2026-05-06 21:27 | 36.42592 | 28.15652 | 936 ft | 153 kts | 251° |
| 2026-05-06 21:27 | 36.42233 | 28.14423 | 742 ft | 153 kts | 251° |
| 2026-05-06 21:27 | 36.41875 | 28.13181 | 564 ft | 155 kts | 250° |
| 2026-05-06 21:28 | 36.41500 | 28.11910 | 339 ft | 157 kts | 250° |
| 2026-05-06 21:28 | 36.41128 | 28.10649 | 108 ft | 154 kts | 249° |
| 2026-05-06 21:28 | 36.40782 | 28.09461 | 29 ft | 135 kts | 250° |
| 2026-05-06 21:28 | 36.40511 | 28.08540 | 23 ft | 92 kts | 250° |
| 2026-05-06 21:29 | 36.40396 | 28.08147 | 24 ft | 24 kts | 250° |
| 2026-05-06 21:29 | 36.40350 | 28.08037 | 29 ft | 13 kts | 229° |
| 2026-05-06 21:29 | 36.40288 | 28.07966 | 28 ft | 11 kts | 220° |
| 2026-05-06 21:29 | 36.40228 | 28.07903 | 24 ft | 11 kts | 220° |
| 2026-05-06 21:30 | 36.40175 | 28.07859 | 26 ft | 9 kts | 189° |
| 2026-05-06 21:30 | 36.40147 | 28.07914 | 25 ft | 9 kts | 83° |
| 2026-05-06 21:30 | 36.40166 | 28.07983 | 28 ft | 8 kts | 69° |
| 2026-05-06 21:30 | 36.40186 | 28.08051 | 29 ft | 8 kts | 70° |
| 2026-05-06 21:31 | 36.40205 | 28.08118 | 29 ft | 9 kts | 70° |
| 2026-05-06 21:31 | 36.40230 | 28.08200 | 26 ft | 12 kts | 70° |
| 2026-05-06 21:31 | 36.40261 | 28.08309 | 27 ft | 15 kts | 70° |
| 2026-05-06 21:31 | 36.40299 | 28.08439 | 27 ft | 16 kts | 70° |
| 2026-05-06 21:32 | 36.40338 | 28.08569 | 27 ft | 16 kts | 70° |
| 2026-05-06 21:32 | 36.40387 | 28.08734 | 28 ft | 9 kts | 70° |
| 2026-05-06 21:32 | 36.40400 | 28.08806 | 28 ft | 8 kts | 84° |
| 2026-05-06 21:33 | 36.40397 | 28.08878 | 28 ft | 8 kts | 93° |
| 2026-05-06 21:33 | 36.40396 | 28.08947 | 28 ft | 7 kts | 87° |
| 2026-05-06 21:33 | 36.40386 | 28.08996 | 28 ft | 6 kts | 132° |
| 2026-05-06 21:33 | 36.40350 | 28.09018 | 28 ft | 5 kts | 158° |
| 2026-05-06 21:34 | 36.40341 | 28.09023 | 28 ft | 1 kts | 159° |
| 2026-05-06 21:34 | 36.40338 | 28.09024 | 28 ft | 0 kts | 158° |
| 2026-05-06 21:34 | 36.40336 | 28.09025 | 28 ft | 0 kts | 158° |